| time (UTC) | temp F | wind direction | speed MPH | gust MPH | rain 1hr in | rain 24hr in | rain mn in | humidity % | barometer mb |
| 20260506155239 | 53 | 347 | 7.0 | 13.0 | 0.00 | 0.22 | 0.22 | 48 | 1012.2 |
| 20260506153347 | 53 | 13 | 3.0 | 10.0 | 0.00 | 0.22 | 0.22 | 48 | 1011.6 |
| 20260506152844 | 53 | 347 | 5.0 | 13.0 | 0.00 | 0.22 | 0.22 | 48 | 1011.5 |
| 20260506152341 | 52 | 335 | 7.0 | 17.0 | 0.00 | 0.22 | 0.22 | 55 | 1011.5 |
| 20260506151839 | 53 | 322 | 5.0 | 13.0 | 0.00 | 0.22 | 0.22 | 55 | 1011.5 |
| 20260506151335 | 52 | 356 | 6.0 | 13.0 | 0.00 | 0.22 | 0.22 | 54 | 1011.6 |
| 20260506150833 | 52 | 338 | 3.0 | 11.0 | 0.00 | 0.22 | 0.22 | 55 | 1011.7 |
| 20260506150329 | 52 | 321 | 10.0 | 12.0 | 0.00 | 0.22 | 0.22 | 53 | 1011.7 |
| 20260506145826 | 52 | 343 | 5.0 | 10.0 | 0.00 | 0.22 | 0.22 | 49 | 1011.6 |
| 20260506145323 | 52 | 318 | 10.0 | 13.0 | 0.00 | 0.22 | 0.22 | 56 | 1011.4 |
| 20260506144820 | 51 | 344 | 5.0 | 15.0 | 0.00 | 0.22 | 0.22 | 58 | 1011.5 |
| 20260506144317 | 51 | 333 | 10.0 | 14.0 | 0.00 | 0.22 | 0.22 | 55 | 1011.2 |
| 20260506143815 | 51 | 335 | 8.0 | 16.0 | 0.00 | 0.22 | 0.22 | 61 | 1011.1 |
| 20260506143312 | 50 | 343 | 9.0 | 16.0 | 0.00 | 0.22 | 0.22 | 59 | 1011.2 |
| 20260506142810 | 51 | 347 | 11.0 | 15.0 | 0.00 | 0.22 | 0.22 | 61 | 1011.1 |
| 20260506142307 | 50 | 329 | 15.0 | 21.0 | 0.00 | 0.22 | 0.22 | 61 | 1011.1 |
| 20260506141806 | 50 | 326 | 13.0 | 15.0 | 0.00 | 0.22 | 0.22 | 63 | 1011.0 |
| 20260506141303 | 50 | 327 | 11.0 | 15.0 | 0.00 | 0.22 | 0.22 | 60 | 1010.8 |
| 20260506140801 | 50 | 327 | 5.0 | 13.0 | 0.00 | 0.22 | 0.22 | 66 | 1011.0 |
| 20260506140258 | 49 | 353 | 7.0 | 12.0 | 0.00 | 0.22 | 0.22 | 66 | 1010.8 |
| 20260506135755 | 49 | 350 | 7.0 | 13.0 | 0.00 | 0.22 | 0.22 | 63 | 1010.9 |
| 20260506135251 | 48 | 295 | 4.0 | 12.0 | 0.00 | 0.22 | 0.22 | 70 | 1010.7 |
| 20260506134748 | 48 | 311 | 6.0 | 15.0 | 0.00 | 0.22 | 0.22 | 70 | 1010.9 |
| 20260506134244 | 48 | 323 | 6.0 | 12.0 | 0.00 | 0.22 | 0.22 | 72 | 1011.0 |
| 20260506133741 | 48 | 311 | 8.0 | 12.0 | 0.00 | 0.22 | 0.22 | 70 | 1010.9 |
| 20260506133238 | 48 | 327 | 8.0 | 13.0 | 0.00 | 0.22 | 0.22 | 69 | 1011.1 |
| 20260506132735 | 48 | 329 | 9.0 | 11.0 | 0.00 | 0.22 | 0.22 | 70 | 1010.8 |
| 20260506132232 | 48 | 328 | 9.0 | 11.0 | 0.00 | 0.22 | 0.22 | 73 | 1011.0 |
| 20260506131730 | 48 | 288 | 6.0 | 13.0 | 0.00 | 0.22 | 0.22 | 73 | 1010.9 |
| 20260506131226 | 47 | 317 | 7.0 | 15.0 | 0.00 | 0.22 | 0.22 | 75 | 1010.5 |
| 20260506130723 | 47 | 307 | 8.0 | 17.0 | 0.00 | 0.22 | 0.22 | 73 | 1010.5 |
| 20260506130220 | 47 | 304 | 2.0 | 12.0 | 0.00 | 0.22 | 0.22 | 75 | 1010.4 |
| 20260506125718 | 47 | 305 | 4.0 | 13.0 | 0.00 | 0.22 | 0.22 | 76 | 1010.4 |
| 20260506125215 | 46 | 314 | 6.0 | 10.0 | 0.00 | 0.22 | 0.22 | 77 | 1010.2 |
| 20260506124713 | 46 | 297 | 6.0 | 10.0 | 0.00 | 0.22 | 0.22 | 79 | 1010.2 |
| 20260506124211 | 46 | 316 | 10.0 | 12.0 | 0.00 | 0.22 | 0.22 | 80 | 1010.0 |
| 20260506123708 | 46 | 305 | 3.0 | 8.0 | 0.00 | 0.22 | 0.22 | 80 | 1010.3 |
| 20260506123207 | 46 | 277 | 7.0 | 13.0 | 0.00 | 0.22 | 0.22 | 80 | 1010.3 |
| 20260506122703 | 45 | 294 | 3.0 | 11.0 | 0.00 | 0.22 | 0.22 | 81 | 1010.1 |
| 20260506122201 | 45 | 287 | 3.0 | 11.0 | 0.00 | 0.22 | 0.22 | 81 | 1010.1 |
| 20260506121658 | 45 | 287 | 6.0 | 14.0 | 0.00 | 0.22 | 0.22 | 81 | 1010.0 |
| 20260506121154 | 45 | 305 | 4.0 | 11.0 | 0.00 | 0.22 | 0.22 | 82 | 1009.9 |
| 20260506120653 | 45 | 294 | 3.0 | 13.0 | 0.00 | 0.22 | 0.22 | 83 | 1010.0 |
| 20260506120150 | 45 | 299 | 2.0 | 10.0 | 0.00 | 0.22 | 0.22 | 83 | 1009.7 |
| 20260506115648 | 44 | 304 | 3.0 | 8.0 | 0.00 | 0.22 | 0.22 | 83 | 1009.3 |
| 20260506115146 | 44 | 305 | 5.0 | 8.0 | 0.00 | 0.22 | 0.22 | 83 | 1009.3 |
| 20260506114643 | 44 | 287 | 2.0 | 7.0 | 0.00 | 0.22 | 0.22 | 84 | 1009.8 |
| 20260506114141 | 44 | 312 | 3.0 | 7.0 | 0.00 | 0.22 | 0.22 | 84 | 1009.8 |
| 20260506113639 | 44 | 280 | 3.0 | 5.0 | 0.00 | 0.22 | 0.22 | 85 | 1009.3 |
| 20260506113136 | 44 | 276 | 3.0 | 8.0 | 0.00 | 0.22 | 0.22 | 85 | 1009.3 |
| 20260506112632 | 44 | 276 | 6.0 | 8.0 | 0.00 | 0.22 | 0.22 | 85 | 1009.5 |
| 20260506112130 | 44 | 288 | 3.0 | 5.0 | 0.00 | 0.22 | 0.22 | 86 | 1008.9 |
| 20260506111627 | 44 | 276 | 4.0 | 8.0 | 0.00 | 0.22 | 0.22 | 85 | 1009.0 |
| 20260506111125 | 44 | 267 | 5.0 | 8.0 | 0.00 | 0.22 | 0.22 | 86 | 1009.3 |
| 20260506110622 | 44 | 257 | 5.0 | 9.0 | 0.00 | 0.22 | 0.22 | 86 | 1009.3 |
| 20260506110120 | 44 | 253 | 4.0 | 7.0 | 0.00 | 0.22 | 0.22 | 86 | 1009.4 |
| 20260506105616 | 44 | 244 | 8.0 | 9.0 | 0.00 | 0.22 | 0.22 | 86 | 1009.2 |
| 20260506105113 | 44 | 255 | 5.0 | 7.0 | 0.00 | 0.22 | 0.22 | 87 | 1009.1 |
| 20260506104611 | 44 | 266 | 4.0 | 6.0 | 0.00 | 0.22 | 0.22 | 87 | 1009.2 |
| 20260506104108 | 43 | 261 | 3.0 | 9.0 | 0.00 | 0.22 | 0.22 | 87 | 1008.9 |
| 20260506103605 | 43 | 276 | 2.0 | 7.0 | 0.00 | 0.22 | 0.22 | 88 | 1008.7 |
| 20260506103102 | 44 | 279 | 2.0 | 7.0 | 0.00 | 0.22 | 0.22 | 88 | 1008.8 |
| 20260506102600 | 43 | 331 | 7.0 | 10.0 | 0.00 | 0.22 | 0.22 | 88 | 1008.7 |
| 20260506102057 | 43 | 293 | 5.0 | 8.0 | 0.00 | 0.22 | 0.22 | 88 | 1008.4 |
| 20260506101554 | 43 | 292 | 7.0 | 7.0 | 0.00 | 0.22 | 0.22 | 88 | 1008.4 |
| 20260506101051 | 44 | 291 | 3.0 | 7.0 | 0.00 | 0.22 | 0.22 | 88 | 1008.2 |
| 20260506100549 | 43 | 277 | 0.0 | 4.0 | 0.00 | 0.22 | 0.22 | 88 | 1008.1 |
| 20260506100047 | 44 | 298 | 2.0 | 6.0 | 0.00 | 0.22 | 0.22 | 88 | 1007.8 |
| 20260506095546 | 44 | 254 | 1.0 | 2.0 | 0.00 | 0.22 | 0.22 | 88 | 1007.9 |
| 20260506095042 | 43 | 272 | 2.0 | 3.0 | 0.00 | 0.22 | 0.22 | 88 | 1008.3 |
| 20260506094539 | 43 | 271 | 3.0 | 4.0 | 0.00 | 0.22 | 0.22 | 88 | 1008.3 |
| 20260506094037 | 43 | 202 | 0.0 | 2.0 | 0.00 | 0.22 | 0.22 | 88 | 1007.9 |
| 20260506093535 | 43 | 195 | 0.0 | 2.0 | 0.00 | 0.22 | 0.22 | 88 | 1008.1 |
| 20260506093032 | 43 | 185 | 0.0 | 4.0 | 0.00 | 0.22 | 0.22 | 88 | 1008.0 |
| 20260506092530 | 43 | 264 | 1.0 | 3.0 | 0.00 | 0.22 | 0.22 | 88 | 1008.2 |
| 20260506092027 | 43 | 269 | 0.0 | 4.0 | 0.00 | 0.22 | 0.22 | 88 | 1008.5 |
| 20260506091525 | 43 | 262 | 0.0 | 4.0 | 0.00 | 0.22 | 0.22 | 88 | 1008.5 |
| 20260506091022 | 44 | 291 | 2.0 | 5.0 | 0.00 | 0.22 | 0.22 | 88 | 1008.5 |
| 20260506090520 | 44 | 318 | 2.0 | 9.0 | 0.00 | 0.22 | 0.22 | 88 | 1008.6 |
| 20260506090016 | 44 | 299 | 6.0 | 7.0 | 0.00 | 0.22 | 0.22 | 89 | 1008.7 |
| 20260506085513 | 44 | 296 | 3.0 | 8.0 | 0.02 | 0.22 | 0.22 | 88 | 1008.3 |
| 20260506085009 | 44 | 335 | 5.0 | 6.0 | 0.02 | 0.22 | 0.22 | 88 | 1008.2 |
| 20260506084506 | 44 | 327 | 5.0 | 7.0 | 0.02 | 0.22 | 0.22 | 88 | 1008.0 |
| 20260506084002 | 44 | 346 | 2.0 | 4.0 | 0.05 | 0.22 | 0.22 | 88 | 1008.2 |
| 20260506083500 | 43 | 320 | 3.0 | 5.0 | 0.05 | 0.22 | 0.22 | 88 | 1008.4 |
| 20260506082957 | 44 | 330 | 2.0 | 6.0 | 0.00 | 0.21 | 0.21 | 88 | 1008.5 |
| 20260506082454 | 44 | 309 | 1.0 | 5.0 | 0.00 | 0.21 | 0.21 | 88 | 1008.5 |
| 20260506081949 | 44 | 308 | 1.0 | 5.0 | 0.00 | 0.21 | 0.21 | 88 | 1008.6 |
| 20260506081448 | 44 | 346 | 2.0 | 5.0 | 0.00 | 0.21 | 0.21 | 88 | 1008.3 |
| 20260506080945 | 44 | 323 | 4.0 | 6.0 | 0.00 | 0.21 | 0.21 | 88 | 1008.4 |
| 20260506080442 | 44 | 318 | 6.0 | 7.0 | 0.00 | 0.21 | 0.21 | 89 | 1008.3 |
| 20260506073426 | 44 | 48 | 0.0 | 3.0 | 0.02 | 0.20 | 0.20 | 88 | 1007.9 |
| 20260506072923 | 44 | 331 | 2.0 | 4.0 | 0.02 | 0.20 | 0.20 | 88 | 1008.1 |
| 20260506072420 | 44 | 0 | 2.0 | 3.0 | 0.05 | 0.20 | 0.20 | 88 | 1007.9 |
| 20260506071918 | 44 | 2 | 2.0 | 4.0 | 0.05 | 0.20 | 0.20 | 88 | 1008.1 |
| 20260506071416 | 44 | 336 | 3.0 | 5.0 | 0.05 | 0.19 | 0.19 | 88 | 1008.6 |
| 20260506070912 | 44 | 314 | 4.0 | 6.0 | 0.07 | 0.19 | 0.19 | 88 | 1008.8 |
| 20260506070409 | 44 | 342 | 3.0 | 6.0 | 0.02 | 0.18 | 0.18 | 88 | 1008.8 |
| 20260506062347 | 45 | 351 | 4.0 | 8.0 | 0.07 | 0.15 | 0.15 | 89 | 1008.1 |
| 20260506061842 | 46 | 319 | 4.0 | 9.0 | 0.05 | 0.14 | 0.14 | 89 | 1008.3 |
| 20260506061339 | 46 | 312 | 6.0 | 8.0 | 0.05 | 0.14 | 0.14 | 89 | 1008.5 |
| 20260506060837 | 46 | 330 | 5.0 | 8.0 | 0.05 | 0.13 | 0.13 | 89 | 1008.6 |
| 20260506060335 | 45 | 316 | 4.0 | 7.0 | 0.07 | 0.13 | 0.13 | 89 | 1008.5 |
| 20260506051307 | 46 | 317 | 3.0 | 8.0 | 0.09 | 0.06 | 0.06 | 89 | 1008.5 |
| 20260506050805 | 46 | 323 | 2.0 | 6.0 | 0.07 | 0.05 | 0.05 | 89 | 1008.7 |
| 20260506050302 | 46 | 320 | 4.0 | 8.0 | 0.05 | 0.04 | 0.04 | 89 | 1008.7 |
| 20260506044752 | 46 | 315 | 0.0 | 4.0 | 0.02 | 0.03 | 0.03 | 89 | 1008.2 |
| 20260506044250 | 46 | 334 | 2.0 | 4.0 | 0.02 | 0.02 | 0.02 | 89 | 1008.2 |
| 20260506043747 | 46 | 332 | 4.0 | 5.0 | 0.00 | 0.02 | 0.02 | 89 | 1008.2 |
| 20260506043244 | 46 | 291 | 2.0 | 4.0 | 0.02 | 0.02 | 0.02 | 89 | 1008.4 |
| 20260506042743 | 46 | 309 | 2.0 | 4.0 | 0.05 | 0.02 | 0.02 | 89 | 1008.4 |
| 20260506042241 | 46 | 272 | 2.0 | 3.0 | 0.05 | 0.02 | 0.02 | 89 | 1008.3 |
| 20260506041739 | 46 | 305 | 2.0 | 4.0 | 0.05 | 0.01 | 0.01 | 89 | 1008.3 |
| 20260506041236 | 46 | 335 | 3.0 | 5.0 | 0.05 | 0.01 | 0.01 | 89 | 1008.4 |
| 20260506040733 | 46 | 313 | 2.0 | 4.0 | 0.02 | 0.00 | 0.00 | 89 | 1008.4 |
| 20260506040231 | 46 | 299 | 1.0 | 3.0 | 0.05 | 0.00 | 0.00 | 89 | 1008.3 |
| 20260506035727 | 46 | 322 | 0.0 | 5.0 | 0.09 | 0.93 | 0.93 | 89 | 1008.3 |
| 20260506035224 | 46 | 273 | 1.0 | 5.0 | 0.09 | 0.91 | 0.91 | 89 | 1008.4 |
| 20260506034721 | 46 | 304 | 2.0 | 5.0 | 0.12 | 0.91 | 0.91 | 89 | 1008.6 |
| 20260506034218 | 46 | 13 | 1.0 | 6.0 | 0.09 | 0.90 | 0.90 | 89 | 1008.5 |
| 20260506033715 | 46 | 323 | 3.0 | 8.0 | 0.05 | 0.89 | 0.89 | 89 | 1008.2 |
| 20260506033212 | 47 | 330 | 6.0 | 8.0 | 0.05 | 0.88 | 0.88 | 89 | 1008.3 |
| 20260506032709 | 46 | 319 | 0.0 | 5.0 | 0.05 | 0.88 | 0.88 | 89 | 1008.3 |
| 20260506032206 | 47 | 283 | 0.0 | 4.0 | 0.05 | 0.87 | 0.87 | 89 | 1008.4 |
| 20260506031703 | 47 | 250 | 3.0 | 4.0 | 0.07 | 0.87 | 0.87 | 89 | 1008.5 |
| 20260506031200 | 47 | 235 | 2.0 | 3.0 | 0.07 | 0.87 | 0.87 | 89 | 1008.5 |
| 20260506030658 | 47 | 86 | 1.0 | 2.0 | 0.07 | 0.86 | 0.86 | 89 | 1008.6 |
| 20260506030155 | 47 | 239 | 1.0 | 2.0 | 0.14 | 0.85 | 0.85 | 89 | 1008.6 |
| 20260506025652 | 47 | 118 | 0.0 | 2.0 | 0.12 | 0.84 | 0.84 | 89 | 1008.5 |
| 20260506025148 | 47 | 189 | 0.0 | 2.0 | 0.12 | 0.83 | 0.83 | 89 | 1008.6 |
| 20260506024646 | 47 | 224 | 0.0 | 1.0 | 0.09 | 0.82 | 0.82 | 89 | 1008.5 |
| 20260506024142 | 47 | 130 | 0.0 | 2.0 | 0.14 | 0.81 | 0.81 | 89 | 1008.5 |
| 20260506023638 | 47 | 160 | 3.0 | 4.0 | 0.17 | 0.80 | 0.80 | 89 | 1008.5 |
| 20260506023136 | 47 | 170 | 2.0 | 3.0 | 0.17 | 0.79 | 0.79 | 89 | 1008.7 |
| 20260506022633 | 47 | 194 | 0.0 | 3.0 | 0.12 | 0.77 | 0.77 | 89 | 1008.8 |
| 20260506022130 | 47 | 184 | 2.0 | 3.0 | 0.12 | 0.76 | 0.76 | 89 | 1008.9 |
| 20260506021628 | 47 | 214 | 1.0 | 3.0 | 0.12 | 0.75 | 0.75 | 89 | 1008.9 |
| 20260506021125 | 47 | 134 | 0.0 | 2.0 | 0.12 | 0.74 | 0.74 | 89 | 1008.4 |
| 20260506020622 | 47 | 224 | 0.0 | 5.0 | 0.09 | 0.72 | 0.72 | 89 | 1008.7 |
| 20260506020120 | 48 | 255 | 3.0 | 4.0 | 0.09 | 0.72 | 0.72 | 89 | 1008.6 |
| 20260506015617 | 48 | 213 | 2.0 | 4.0 | 0.09 | 0.71 | 0.71 | 89 | 1008.5 |
| 20260506015114 | 47 | 345 | 0.0 | 5.0 | 0.12 | 0.70 | 0.70 | 89 | 1008.6 |
| 20260506014612 | 47 | 271 | 3.0 | 5.0 | 0.07 | 0.69 | 0.69 | 89 | 1008.7 |
| 20260506014106 | 47 | 258 | 1.0 | 4.0 | 0.07 | 0.68 | 0.68 | 89 | 1008.6 |
| 20260506013605 | 47 | 0 | 0.0 | 2.0 | 0.07 | 0.68 | 0.68 | 89 | 1008.4 |
| 20260506013102 | 47 | 336 | 3.0 | 4.0 | 0.07 | 0.67 | 0.67 | 89 | 1008.4 |
| 20260506012558 | 47 | 329 | 2.0 | 3.0 | 0.12 | 0.67 | 0.67 | 89 | 1008.3 |
| 20260506012055 | 47 | 19 | 0.0 | 2.0 | 0.12 | 0.66 | 0.66 | 89 | 1008.1 |
| 20260506011553 | 48 | 319 | 3.0 | 4.0 | 0.09 | 0.65 | 0.65 | 89 | 1008.3 |
| 20260506011048 | 48 | 212 | 0.0 | 1.0 | 0.09 | 0.64 | 0.64 | 89 | 1008.2 |
| 20260506010542 | 47 | 15 | 1.0 | 2.0 | 0.09 | 0.63 | 0.63 | 89 | 1008.2 |
| 20260506010038 | 48 | 40 | 0.0 | 2.0 | 0.09 | 0.62 | 0.62 | 89 | 1007.9 |
| 20260506005535 | 48 | 354 | 1.0 | 3.0 | 0.07 | 0.61 | 0.61 | 89 | 1008.1 |
| 20260506005031 | 47 | 331 | 0.0 | 3.0 | 0.05 | 0.61 | 0.61 | 89 | 1008.2 |
| 20260506004529 | 47 | 347 | 0.0 | 2.0 | 0.07 | 0.60 | 0.60 | 89 | 1008.0 |
| 20260506004025 | 47 | 65 | 0.0 | 2.0 | 0.07 | 0.59 | 0.59 | 88 | 1007.9 |
| 20260506003522 | 47 | 359 | 2.0 | 4.0 | 0.09 | 0.59 | 0.59 | 88 | 1007.7 |
| 20260506003018 | 48 | 1 | 1.0 | 3.0 | 0.07 | 0.58 | 0.58 | 89 | 1007.9 |
| 20260506002514 | 48 | 337 | 2.0 | 4.0 | 0.05 | 0.57 | 0.57 | 88 | 1007.9 |
| 20260506002010 | 48 | 21 | 2.0 | 3.0 | 0.02 | 0.57 | 0.57 | 89 | 1007.8 |
| 20260506001507 | 48 | 15 | 1.0 | 3.0 | 0.02 | 0.57 | 0.57 | 89 | 1008.0 |
| 20260506001004 | 48 | 48 | 0.0 | 2.0 | 0.05 | 0.56 | 0.56 | 89 | 1007.9 |
| 20260506000501 | 48 | 32 | 0.0 | 2.0 | 0.05 | 0.56 | 0.56 | 88 | 1007.9 |
| 20260505235958 | 48 | 52 | 0.0 | 2.0 | 0.05 | 0.56 | 0.56 | 88 | 1007.9 |
| 20260505235456 | 48 | 14 | 0.0 | 3.0 | 0.07 | 0.55 | 0.55 | 88 | 1007.8 |
| 20260505234953 | 48 | 350 | 3.0 | 4.0 | 0.05 | 0.54 | 0.54 | 88 | 1008.1 |
| 20260505234450 | 48 | 317 | 3.0 | 5.0 | 0.05 | 0.54 | 0.54 | 88 | 1008.1 |
| 20260505233947 | 48 | 327 | 0.0 | 4.0 | 0.05 | 0.54 | 0.54 | 88 | 1008.1 |
| 20260505233444 | 48 | 320 | 4.0 | 5.0 | 0.05 | 0.53 | 0.53 | 88 | 1008.1 |
| 20260505232942 | 48 | 310 | 2.0 | 5.0 | 0.05 | 0.53 | 0.53 | 88 | 1008.3 |
| 20260505232440 | 48 | 295 | 2.0 | 6.0 | 0.05 | 0.52 | 0.52 | 88 | 1008.1 |
| 20260505231937 | 48 | 331 | 3.0 | 7.0 | 0.05 | 0.52 | 0.52 | 88 | 1007.9 |
| 20260505231434 | 48 | 318 | 4.0 | 9.0 | 0.05 | 0.52 | 0.52 | 89 | 1008.0 |
| 20260505230932 | 49 | 314 | 9.0 | 9.0 | 0.05 | 0.51 | 0.51 | 89 | 1007.8 |
| 20260505230429 | 49 | 322 | 8.0 | 11.0 | 0.05 | 0.51 | 0.51 | 89 | 1007.7 |
| 20260505225925 | 49 | 331 | 4.0 | 7.0 | 0.05 | 0.50 | 0.50 | 89 | 1007.5 |
| 20260505225423 | 49 | 15 | 3.0 | 9.0 | 0.07 | 0.50 | 0.50 | 89 | 1007.5 |
| 20260505224918 | 49 | 347 | 3.0 | 10.0 | 0.09 | 0.50 | 0.50 | 89 | 1007.6 |
| 20260505224415 | 48 | 7 | 3.0 | 9.0 | 0.07 | 0.49 | 0.49 | 89 | 1007.6 |
| 20260505223912 | 49 | 332 | 7.0 | 9.0 | 0.05 | 0.48 | 0.48 | 89 | 1007.7 |
| 20260505223409 | 49 | 8 | 2.0 | 9.0 | 0.05 | 0.47 | 0.47 | 89 | 1007.8 |
| 20260505222906 | 49 | 359 | 2.0 | 5.0 | 0.07 | 0.47 | 0.47 | 88 | 1007.6 |
| 20260505222402 | 49 | 40 | 0.0 | 6.0 | 0.07 | 0.47 | 0.47 | 88 | 1007.5 |
| 20260505221858 | 49 | 5 | 1.0 | 4.0 | 0.05 | 0.46 | 0.46 | 88 | 1007.4 |
| 20260505221355 | 49 | 357 | 2.0 | 5.0 | 0.02 | 0.45 | 0.45 | 88 | 1007.6 |
| 20260505220853 | 49 | 26 | 1.0 | 4.0 | 0.02 | 0.45 | 0.45 | 88 | 1007.6 |
| 20260505220350 | 49 | 29 | 4.0 | 6.0 | 0.00 | 0.45 | 0.45 | 88 | 1007.3 |
| 20260505215847 | 49 | 4 | 3.0 | 4.0 | 0.02 | 0.45 | 0.45 | 88 | 1007.5 |
| 20260505215345 | 49 | 357 | 4.0 | 7.0 | 0.05 | 0.45 | 0.45 | 88 | 1007.5 |
| 20260505214843 | 49 | 3 | 3.0 | 7.0 | 0.02 | 0.44 | 0.44 | 88 | 1007.5 |
| 20260505214340 | 49 | 2 | 2.0 | 8.0 | 0.02 | 0.44 | 0.44 | 88 | 1007.6 |
| 20260505213837 | 50 | 328 | 8.0 | 10.0 | 0.07 | 0.43 | 0.43 | 88 | 1007.6 |
| 20260505213335 | 50 | 310 | 1.0 | 3.0 | 0.12 | 0.43 | 0.43 | 89 | 1007.6 |
| 20260505212831 | 50 | 280 | 3.0 | 5.0 | 0.12 | 0.42 | 0.42 | 88 | 1007.6 |
| 20260505212328 | 50 | 334 | 3.0 | 8.0 | 0.09 | 0.41 | 0.41 | 88 | 1007.6 |
| 20260505211824 | 50 | 313 | 4.0 | 7.0 | 0.12 | 0.40 | 0.40 | 88 | 1007.6 |
| 20260505211322 | 50 | 337 | 5.0 | 11.0 | 0.14 | 0.39 | 0.39 | 88 | 1007.4 |
| 20260505210818 | 50 | 307 | 5.0 | 7.0 | 0.21 | 0.38 | 0.38 | 89 | 1007.3 |
| 20260505210315 | 50 | 294 | 3.0 | 9.0 | 0.19 | 0.36 | 0.36 | 88 | 1007.3 |
| 20260505205812 | 50 | 321 | 5.0 | 8.0 | 0.17 | 0.35 | 0.35 | 88 | 1007.4 |
| 20260505205310 | 50 | 311 | 2.0 | 6.0 | 0.17 | 0.33 | 0.33 | 88 | 1007.2 |
| 20260505204807 | 50 | 311 | 3.0 | 8.0 | 0.19 | 0.32 | 0.32 | 87 | 1007.3 |
| 20260505204305 | 50 | 310 | 5.0 | 8.0 | 0.19 | 0.30 | 0.30 | 87 | 1007.1 |
| 20260505203802 | 50 | 13 | 3.0 | 8.0 | 0.17 | 0.28 | 0.28 | 87 | 1007.4 |
| 20260505203259 | 50 | 315 | 4.0 | 7.0 | 0.12 | 0.27 | 0.27 | 87 | 1007.3 |
| 20260505202754 | 50 | 313 | 5.0 | 11.0 | 0.07 | 0.26 | 0.26 | 86 | 1007.2 |
| 20260505202251 | 50 | 303 | 3.0 | 12.0 | 0.02 | 0.24 | 0.24 | 86 | 1007.1 |
| 20260505201747 | 50 | 309 | 5.0 | 10.0 | 0.07 | 0.24 | 0.24 | 86 | 1007.1 |
| 20260505201245 | 50 | 324 | 7.0 | 11.0 | 0.07 | 0.24 | 0.24 | 87 | 1007.2 |
| 20260505200743 | 51 | 333 | 11.0 | 15.0 | 0.05 | 0.23 | 0.23 | 86 | 1007.1 |
| 20260505200240 | 51 | 311 | 9.0 | 10.0 | 0.05 | 0.22 | 0.22 | 86 | 1006.9 |
| 20260505195735 | 51 | 309 | 2.0 | 15.0 | 0.05 | 0.22 | 0.22 | 86 | 1007.3 |
| 20260505195233 | 51 | 313 | 3.0 | 8.0 | 0.05 | 0.22 | 0.22 | 87 | 1007.4 |
| 20260505194730 | 51 | 313 | 5.0 | 11.0 | 0.02 | 0.21 | 0.21 | 86 | 1007.6 |
| 20260505194226 | 51 | 287 | 6.0 | 12.0 | 0.05 | 0.20 | 0.20 | 87 | 1007.7 |
| 20260505193722 | 51 | 306 | 3.0 | 10.0 | 0.09 | 0.20 | 0.20 | 87 | 1007.7 |
| 20260505193220 | 52 | 298 | 5.0 | 11.0 | 0.09 | 0.20 | 0.20 | 87 | 1007.8 |
| 20260505192718 | 52 | 306 | 4.0 | 8.0 | 0.07 | 0.18 | 0.18 | 87 | 1007.9 |
| 20260505192215 | 52 | 278 | 4.0 | 9.0 | 0.09 | 0.18 | 0.18 | 87 | 1008.1 |
| 20260505191714 | 52 | 287 | 3.0 | 8.0 | 0.09 | 0.17 | 0.17 | 87 | 1008.0 |
| 20260505191212 | 52 | 269 | 5.0 | 11.0 | 0.09 | 0.16 | 0.16 | 86 | 1008.1 |
| 20260505190708 | 52 | 285 | 4.0 | 10.0 | 0.09 | 0.15 | 0.15 | 86 | 1007.9 |
| 20260505190207 | 52 | 272 | 4.0 | 9.0 | 0.07 | 0.14 | 0.14 | 86 | 1007.8 |
| 20260505185704 | 52 | 281 | 3.0 | 7.0 | 0.12 | 0.14 | 0.14 | 85 | 1007.7 |
| 20260505185201 | 52 | 276 | 6.0 | 8.0 | 0.12 | 0.13 | 0.13 | 85 | 1007.6 |
| 20260505184657 | 52 | 266 | 8.0 | 8.0 | 0.07 | 0.12 | 0.12 | 83 | 1007.9 |
| 20260505184154 | 53 | 281 | 5.0 | 9.0 | 0.02 | 0.11 | 0.11 | 84 | 1007.7 |
| 20260505183651 | 53 | 286 | 6.0 | 10.0 | 0.02 | 0.11 | 0.11 | 83 | 1007.4 |
| 20260505183149 | 53 | 275 | 6.0 | 9.0 | 0.00 | 0.10 | 0.10 | 82 | 1007.4 |
| 20260505182645 | 53 | 267 | 5.0 | 9.0 | 0.02 | 0.10 | 0.10 | 81 | 1007.3 |
| 20260505182142 | 53 | 257 | 5.0 | 10.0 | 0.05 | 0.10 | 0.10 | 80 | 1007.5 |
| 20260505181638 | 53 | 278 | 3.0 | 10.0 | 0.02 | 0.10 | 0.10 | 81 | 1007.4 |
| 20260505181136 | 53 | 242 | 7.0 | 10.0 | 0.02 | 0.09 | 0.09 | 78 | 1007.2 |
| 20260505180632 | 53 | 256 | 5.0 | 10.0 | 0.02 | 0.09 | 0.09 | 80 | 1007.4 |
| 20260505180130 | 53 | 240 | 4.0 | 9.0 | 0.05 | 0.09 | 0.09 | 79 | 1007.5 |
| 20260505175625 | 53 | 226 | 4.0 | 7.0 | 0.09 | 0.09 | 0.09 | 81 | 1007.4 |
| 20260505175121 | 53 | 220 | 2.0 | 7.0 | 0.07 | 0.08 | 0.08 | 80 | 1007.2 |
| 20260505174613 | 54 | 253 | 9.0 | 9.0 | 0.05 | 0.07 | 0.07 | 80 | 1007.2 |
| 20260505174109 | 54 | 274 | 8.0 | 12.0 | 0.09 | 0.07 | 0.07 | 81 | 1007.6 |
| 20260505173606 | 55 | 265 | 6.0 | 12.0 | 0.07 | 0.06 | 0.06 | 83 | 1007.5 |
| 20260505173102 | 55 | 277 | 5.0 | 11.0 | 0.07 | 0.05 | 0.05 | 82 | 1007.5 |
| 20260505172600 | 55 | 248 | 8.0 | 10.0 | 0.07 | 0.04 | 0.04 | 82 | 1007.6 |
| 20260505172057 | 55 | 278 | 9.0 | 11.0 | 0.09 | 0.04 | 0.04 | 82 | 1007.5 |
| 20260505171556 | 56 | 283 | 9.0 | 11.0 | 0.12 | 0.03 | 0.03 | 81 | 1007.3 |
| 20260505171054 | 56 | 254 | 8.0 | 10.0 | 0.09 | 0.02 | 0.02 | 81 | 1007.4 |
| 20260505170551 | 57 | 302 | 6.0 | 13.0 | 0.02 | 0.00 | 0.00 | 79 | 1007.5 |
| 20260505170048 | 57 | 272 | 7.0 | 15.0 | 0.02 | 0.00 | 0.00 | 79 | 1007.7 |
| 20260505165543 | 58 | 266 | 6.0 | 17.0 | 0.00 | 0.00 | 0.00 | 78 | 1007.4 |
| 20260505165039 | 59 | 249 | 7.0 | 15.0 | 0.00 | 0.00 | 0.00 | 77 | 1007.5 |
| 20260505164535 | 59 | 262 | 17.0 | 18.0 | 0.00 | 0.00 | 0.00 | 75 | 1007.5 |
| 20260505164033 | 59 | 252 | 17.0 | 18.0 | 0.00 | 0.00 | 0.00 | 72 | 1007.5 |
| 20260505163531 | 59 | 267 | 17.0 | 22.0 | 0.00 | 0.00 | 0.00 | 72 | 1007.5 |
| 20260505163027 | 59 | 257 | 10.0 | 22.0 | 0.00 | 0.00 | 0.00 | 73 | 1007.5 |
| 20260505162521 | 59 | 242 | 7.0 | 17.0 | 0.00 | 0.00 | 0.00 | 72 | 1007.5 |
| 20260505162018 | 60 | 256 | 11.0 | 20.0 | 0.00 | 0.00 | 0.00 | 70 | 1007.7 |
| 20260505161514 | 59 | 256 | 17.0 | 25.0 | 0.00 | 0.00 | 0.00 | 69 | 1007.5 |
| 20260505161012 | 59 | 242 | 14.0 | 26.0 | 0.00 | 0.00 | 0.00 | 69 | 1007.4 |
| 20260505160510 | 60 | 257 | 20.0 | 24.0 | 0.00 | 0.00 | 0.00 | 69 | 1007.3 |